Terminal Aerodrome Forecast
Issued by NWS Paducah, KY

Home | Current Version | Previous Version | Graphics & Text | Print | Product List | Glossary On
Versions: 1 2 3 4 5 6 7 8 9 10 11 12 13 14 15 16 17 18 19 20
000
FTUS43 KPAH 231459 AAB
TAFPAH
TAF AMD
KPAH 231459Z 2315/2412 25007KT 4SM -SHRA BR BKN008
      TEMPO 2315/2318 2SM SHRA BR SCT008 BKN015
     FM231800 26006KT P6SM VCSH OVC004
     FM232000 VRB04KT P6SM OVC010
     FM240100 02006KT 5SM -SHRA BR OVC005
     FM240600 07007KT 2SM SHRA BR OVC002=

USA.gov is the U.S. government's official web portal to all federal, state and local government web resources and services.